Time;durP1;ratioP1;P1;durP2;ratioP2;P2;SDS_P1;SDS_P2;PMS_P1;PMS_P2;Temp;Humidity;BMP_temperature;BMP_pressure;BME280_temperature;BME280_humidity;BME280_pressure;Samples;Min_cycle;Max_cycle;Signal;HPM_P1;HPM_P2
2023/08/09 00:01:50;;;;;;;3.67;1.38;;;11.70;99.90;;;;;;5101022;28;20075;-56
2023/08/09 00:04:16;;;;;;;1.73;0.82;;;11.70;99.90;;;;;;5120081;27;20062;-56
2023/08/09 00:06:41;;;;;;;3.60;0.85;;;11.70;99.90;;;;;;5122152;27;20564;-56
2023/08/09 00:09:07;;;;;;;1.23;0.90;;;11.70;99.90;;;;;;5124773;27;20099;-56
2023/08/09 00:11:33;;;;;;;4.85;1.42;;;11.60;99.90;;;;;;5101769;27;20096;-57
2023/08/09 00:13:58;;;;;;;1.52;0.95;;;11.70;99.90;;;;;;5124415;27;20428;-57
2023/08/09 00:16:25;;;;;;;5.57;1.25;;;11.70;99.90;;;;;;5103424;27;20055;-57
2023/08/09 00:18:50;;;;;;;3.80;1.13;;;11.70;99.90;;;;;;5121907;27;20058;-57
2023/08/09 00:21:16;;;;;;;4.65;1.38;;;11.60;99.90;;;;;;5124619;27;20051;-57
2023/08/09 00:23:42;;;;;;;1.63;0.90;;;11.60;99.90;;;;;;5121575;27;20058;-57
2023/08/09 00:26:07;;;;;;;2.90;1.30;;;11.60;99.90;;;;;;5124113;27;20047;-58
2023/08/09 00:28:33;;;;;;;2.75;0.90;;;11.50;99.90;;;;;;5121438;27;20047;-57
2023/08/09 00:30:59;;;;;;;3.63;1.50;;;11.60;99.90;;;;;;5123896;27;20416;-57
2023/08/09 00:33:24;;;;;;;4.45;2.03;;;11.60;99.90;;;;;;5102411;27;20135;-55
2023/08/09 00:35:50;;;;;;;2.40;0.80;;;11.60;99.90;;;;;;5084239;28;20052;-57
2023/08/09 00:38:17;;;;;;;5.65;1.55;;;11.60;99.90;;;;;;5119931;27;20344;-57
2023/08/09 00:40:42;;;;;;;3.72;1.35;;;11.60;99.90;;;;;;5121022;27;20059;-57
2023/08/09 00:43:08;;;;;;;1.80;1.02;;;11.60;99.90;;;;;;5124196;27;20116;-57
2023/08/09 00:45:34;;;;;;;2.90;1.48;;;11.50;99.90;;;;;;5118730;27;20059;-56
2023/08/09 00:48:00;;;;;;;1.10;0.82;;;11.50;99.90;;;;;;5123964;27;20461;-56
2023/08/09 00:50:26;;;;;;;1.58;0.75;;;11.50;99.90;;;;;;5102173;27;20531;-56
2023/08/09 00:52:52;;;;;;;3.47;1.23;;;11.50;99.90;;;;;;5122564;27;20134;-57
2023/08/09 00:55:18;;;;;;;2.85;0.90;;;11.50;99.90;;;;;;5102325;27;20052;-56
2023/08/09 00:57:47;;;;;;;2.22;1.13;;;11.50;99.90;;;;;;5120377;27;20128;-55
2023/08/09 01:00:13;;;;;;;3.83;1.00;;;11.60;99.90;;;;;;5123895;27;20086;-55
2023/08/09 01:02:39;;;;;;;2.83;1.45;;;11.50;99.90;;;;;;5120719;27;20477;-61
2023/08/09 01:05:05;;;;;;;3.20;1.20;;;11.50;99.90;;;;;;5123608;27;20065;-57
2023/08/09 01:07:49;;;;;;;1.42;0.93;;;11.40;99.90;;;;;;5101264;27;20056;-57
2023/08/09 01:13:01;;;;;;;3.30;1.50;;;11.40;99.90;;;;;;5102935;27;21301;-57
2023/08/09 01:15:27;;;;;;;3.53;1.55;;;11.40;99.90;;;;;;5122044;27;20063;-58
2023/08/09 01:17:55;;;;;;;3.55;1.63;;;11.40;99.90;;;;;;5100775;27;20568;-59
2023/08/09 01:20:25;;;;;;;3.03;1.08;;;11.30;99.90;;;;;;5079405;27;1117487;-57
2023/08/09 01:23:05;;;;;;;2.30;1.10;;;11.30;99.90;;;;;;5121010;27;20145;-56
2023/08/09 01:25:32;;;;;;;6.45;1.58;;;11.30;99.90;;;;;;5120531;27;20126;-56
2023/08/09 01:27:58;;;;;;;2.78;1.27;;;11.30;99.90;;;;;;5122949;27;20051;-57
2023/08/09 01:30:24;;;;;;;1.83;0.85;;;11.30;99.90;;;;;;5122759;27;20146;-56
2023/08/09 01:32:51;;;;;;;1.83;1.13;;;11.30;99.90;;;;;;5099693;27;20135;-56
2023/08/09 01:35:17;;;;;;;2.38;1.20;;;11.20;99.90;;;;;;5115847;27;20155;-57
2023/08/09 01:37:49;;;;;;;4.22;1.10;;;11.20;99.90;;;;;;5113582;27;20055;-57
2023/08/09 01:40:17;;;;;;;4.82;1.20;;;11.20;99.90;;;;;;5118542;27;20398;-56
2023/08/09 01:42:43;;;;;;;1.13;0.90;;;11.20;99.90;;;;;;5119316;27;20063;-56
2023/08/09 01:45:11;;;;;;;1.50;0.95;;;11.20;99.90;;;;;;5120301;27;20051;-56
2023/08/09 01:47:38;;;;;;;2.15;1.00;;;11.20;99.90;;;;;;5120583;27;20138;-56
2023/08/09 01:50:05;;;;;;;1.02;0.88;;;11.20;99.90;;;;;;5118882;27;20059;-57
2023/08/09 01:52:32;;;;;;;5.00;1.85;;;11.20;99.90;;;;;;5120230;27;20055;-56
2023/08/09 01:54:58;;;;;;;2.58;1.10;;;11.20;99.90;;;;;;5121211;27;20059;-55
2023/08/09 01:57:25;;;;;;;3.90;0.98;;;11.10;99.90;;;;;;5122518;27;20493;-56
2023/08/09 01:59:51;;;;;;;4.13;1.10;;;11.20;99.90;;;;;;5120236;27;20082;-56
2023/08/09 02:02:16;;;;;;;2.40;1.05;;;11.10;99.90;;;;;;5100728;28;20482;-56
2023/08/09 02:04:42;;;;;;;0.60;0.60;;;11.10;99.90;;;;;;5119536;27;20078;-56
2023/08/09 02:07:08;;;;;;;6.15;2.72;;;11.10;99.90;;;;;;5122594;27;20142;-56
2023/08/09 02:09:34;;;;;;;3.88;1.10;;;11.10;99.90;;;;;;5119514;27;20074;-56
2023/08/09 02:12:00;;;;;;;6.00;2.17;;;11.10;99.90;;;;;;5121614;27;20062;-58
2023/08/09 02:14:26;;;;;;;1.52;1.00;;;11.10;99.90;;;;;;5121151;27;20676;-58
2023/08/09 02:16:52;;;;;;;2.38;1.00;;;11.00;99.90;;;;;;5120949;27;20051;-58
2023/08/09 02:19:18;;;;;;;1.67;1.02;;;11.00;99.90;;;;;;5083539;28;20047;-58
2023/08/09 02:21:43;;;;;;;1.33;0.90;;;11.00;99.90;;;;;;5100617;27;20054;-58
2023/08/09 02:24:10;;;;;;;4.05;1.20;;;10.90;99.90;;;;;;5122749;27;20054;-58
2023/08/09 02:26:38;;;;;;;11.65;1.92;;;11.00;99.90;;;;;;5120170;27;20500;-56
2023/08/09 02:29:04;;;;;;;3.17;1.17;;;10.90;99.90;;;;;;5122315;27;20633;-58
2023/08/09 02:31:31;;;;;;;2.30;1.50;;;11.00;99.90;;;;;;5119976;27;20157;-56
2023/08/09 02:34:00;;;;;;;1.20;0.95;;;10.90;99.90;;;;;;5121071;27;20401;-56
2023/08/09 02:36:26;;;;;;;1.38;1.00;;;10.90;99.90;;;;;;5120913;28;20142;-57
2023/08/09 02:38:52;;;;;;;1.77;1.30;;;10.80;99.90;;;;;;5099454;28;20047;-56
2023/08/09 02:41:19;;;;;;;4.05;1.38;;;10.80;99.90;;;;;;5100502;28;20136;-58
2023/08/09 02:43:45;;;;;;;1.25;1.05;;;10.80;99.90;;;;;;5118835;27;20063;-58
2023/08/09 02:46:12;;;;;;;3.88;1.60;;;10.80;99.90;;;;;;5118729;27;20112;-55
2023/08/09 02:48:39;;;;;;;7.00;1.20;;;10.80;99.90;;;;;;5100451;27;20142;-57
2023/08/09 02:51:05;;;;;;;3.92;1.10;;;10.80;99.90;;;;;;5105432;27;20094;-56
2023/08/09 02:53:56;;;;;;;1.27;1.00;;;10.80;99.90;;;;;;5098366;27;20083;-57
2023/08/09 02:56:27;;;;;;;1.95;1.02;;;10.70;99.90;;;;;;5120955;27;20507;-57
2023/08/09 02:58:53;;;;;;;2.28;0.93;;;10.70;99.90;;;;;;5112121;27;20058;-57
2023/08/09 03:01:21;;;;;;;2.22;1.00;;;10.70;99.90;;;;;;5099951;28;20450;-58
2023/08/09 03:03:51;;;;;;;10.68;1.38;;;10.70;99.90;;;;;;5122528;27;20519;-56
2023/08/09 03:06:18;;;;;;;5.63;2.15;;;10.70;99.90;;;;;;5121671;27;20055;-56
2023/08/09 03:08:51;;;;;;;1.92;1.35;;;10.70;99.90;;;;;;5124124;27;20066;-55
2023/08/09 03:11:19;;;;;;;1.52;1.25;;;10.70;99.90;;;;;;5123493;27;20086;-57
2023/08/09 03:13:45;;;;;;;4.07;1.45;;;10.60;99.90;;;;;;5103927;27;20202;-56
2023/08/09 03:16:12;;;;;;;3.53;1.23;;;10.70;99.90;;;;;;5103735;28;20147;-56
2023/08/09 03:18:41;;;;;;;2.80;1.48;;;10.70;99.90;;;;;;5121637;27;20687;-55
2023/08/09 03:21:08;;;;;;;1.45;1.08;;;10.60;99.90;;;;;;5123679;27;20055;-56
2023/08/09 03:23:34;;;;;;;4.30;1.20;;;10.60;99.90;;;;;;5121547;27;20059;-56
2023/08/09 03:26:00;;;;;;;2.60;1.08;;;10.60;99.90;;;;;;5116914;27;20050;-56
2023/08/09 03:28:27;;;;;;;2.17;1.30;;;10.60;99.90;;;;;;5124829;27;20523;-55
2023/08/09 03:30:53;;;;;;;2.97;1.52;;;10.60;99.90;;;;;;5123942;27;20066;-56
2023/08/09 03:33:19;;;;;;;4.93;1.40;;;10.60;99.90;;;;;;5125003;27;20059;-58
2023/08/09 03:35:44;;;;;;;6.45;2.10;;;10.60;99.90;;;;;;5103536;27;20055;-56
2023/08/09 03:38:10;;;;;;;4.95;1.40;;;10.60;99.90;;;;;;5125391;27;20074;-56
2023/08/09 03:40:36;;;;;;;3.92;1.27;;;10.50;99.90;;;;;;5122515;27;20133;-56
2023/08/09 03:43:02;;;;;;;4.82;1.40;;;10.60;99.90;;;;;;5106100;27;20055;-56
2023/08/09 03:45:28;;;;;;;3.90;1.42;;;10.60;99.90;;;;;;5122815;27;20055;-56
2023/08/09 03:47:55;;;;;;;1.33;1.15;;;10.50;99.90;;;;;;5104178;27;20062;-55
2023/08/09 03:50:25;;;;;;;3.40;1.02;;;10.60;99.90;;;;;;5124966;27;20408;-55
2023/08/09 03:52:51;;;;;;;2.15;1.20;;;10.60;99.90;;;;;;5122848;27;20047;-56
2023/08/09 03:55:17;;;;;;;3.55;1.30;;;10.60;99.90;;;;;;5122954;27;20063;-57
2023/08/09 03:57:43;;;;;;;4.05;1.60;;;10.60;99.90;;;;;;5102666;27;20060;-56
2023/08/09 04:00:17;;;;;;;2.50;1.52;;;10.60;99.90;;;;;;5124609;27;20058;-59
2023/08/09 04:02:45;;;;;;;4.93;1.45;;;10.60;99.90;;;;;;5120449;27;20076;-60
2023/08/09 04:05:11;;;;;;;2.55;1.25;;;10.60;99.90;;;;;;5124731;27;20078;-56
2023/08/09 04:07:37;;;;;;;4.25;1.60;;;10.50;99.90;;;;;;5100128;28;20143;-56
2023/08/09 04:10:05;;;;;;;4.25;1.33;;;10.50;99.90;;;;;;5122817;27;20074;-56
2023/08/09 04:12:31;;;;;;;3.08;1.75;;;10.50;99.90;;;;;;5119371;27;20733;-56
2023/08/09 04:14:57;;;;;;;1.98;1.13;;;10.60;99.90;;;;;;5096746;27;20051;-58
2023/08/09 04:17:26;;;;;;;4.10;1.42;;;10.60;99.90;;;;;;5123328;27;20103;-60
2023/08/09 04:19:52;;;;;;;1.90;1.35;;;10.60;99.90;;;;;;5095974;27;20090;-61
2023/08/09 04:22:18;;;;;;;3.03;1.42;;;10.50;99.90;;;;;;5119802;27;20079;-59
2023/08/09 04:24:44;;;;;;;3.22;1.70;;;10.50;99.90;;;;;;5099077;28;21458;-57
2023/08/09 04:27:10;;;;;;;4.57;1.20;;;9.50;99.90;;;;;;5123041;27;20055;-56
2023/08/09 04:29:35;;;;;;;5.30;2.13;;;10.60;99.90;;;;;;5121237;27;20409;-56
2023/08/09 04:32:01;;;;;;;3.70;2.50;;;10.70;99.90;;;;;;5110306;27;20059;-56
2023/08/09 04:34:27;;;;;;;4.28;2.10;;;10.50;99.90;;;;;;5119265;27;20204;-56
2023/08/09 04:36:53;;;;;;;2.33;1.40;;;10.50;99.90;;;;;;5117651;27;20063;-56
2023/08/09 04:39:18;;;;;;;2.00;1.50;;;10.50;99.90;;;;;;5124072;27;20058;-56
2023/08/09 04:41:44;;;;;;;2.22;1.50;;;10.50;99.90;;;;;;5119206;27;21421;-56
2023/08/09 04:44:10;;;;;;;1.65;1.20;;;10.60;99.90;;;;;;5099216;28;20786;-56
2023/08/09 04:46:36;;;;;;;4.38;1.85;;;10.60;99.90;;;;;;5084029;27;20048;-56
2023/08/09 04:49:03;;;;;;;2.63;1.23;;;10.60;99.90;;;;;;5123696;27;20051;-56
2023/08/09 04:51:29;;;;;;;2.40;1.50;;;10.60;99.90;;;;;;5121525;27;20115;-61
2023/08/09 04:53:55;;;;;;;4.55;1.63;;;10.60;99.90;;;;;;5093119;27;20461;-57
2023/08/09 04:56:24;;;;;;;3.53;1.38;;;10.70;99.90;;;;;;5119623;27;20055;-57
2023/08/09 04:58:50;;;;;;;4.00;1.50;;;10.70;99.90;;;;;;5120718;27;20205;-59
2023/08/09 05:01:16;;;;;;;4.50;1.63;;;10.80;99.90;;;;;;5067565;28;20677;-57
2023/08/09 05:03:41;;;;;;;1.92;1.40;;;10.90;99.90;;;;;;5091008;27;20051;-57
2023/08/09 05:06:08;;;;;;;1.83;1.15;;;11.00;99.90;;;;;;5123326;27;20055;-57
2023/08/09 05:08:34;;;;;;;2.40;1.77;;;11.00;99.90;;;;;;5091652;27;20049;-57
2023/08/09 05:10:59;;;;;;;2.90;1.33;;;11.10;99.90;;;;;;5123423;27;20051;-58
2023/08/09 05:13:25;;;;;;;2.05;1.20;;;11.20;99.90;;;;;;5115012;27;20058;-55
2023/08/09 05:15:51;;;;;;;4.93;1.80;;;11.30;99.90;;;;;;5100970;27;20052;-57
2023/08/09 05:18:17;;;;;;;6.57;1.30;;;11.40;99.90;;;;;;5110258;27;20048;-57
2023/08/09 05:20:43;;;;;;;1.98;1.23;;;11.50;99.90;;;;;;5106462;27;20059;-56
2023/08/09 05:23:09;;;;;;;1.30;1.15;;;11.60;99.90;;;;;;5117325;27;20062;-56
2023/08/09 05:25:35;;;;;;;4.60;1.77;;;11.70;99.90;;;;;;5114265;27;20047;-55
2023/08/09 05:28:00;;;;;;;2.33;1.20;;;11.90;99.90;;;;;;5116208;27;20404;-56
2023/08/09 05:30:26;;;;;;;2.33;1.40;;;11.90;99.90;;;;;;5115094;27;20405;-54
2023/08/09 05:32:52;;;;;;;4.22;1.73;;;12.10;99.90;;;;;;5120903;27;20050;-56
2023/08/09 05:35:17;;;;;;;2.50;1.40;;;12.20;99.90;;;;;;5117366;27;20683;-55
2023/08/09 05:37:43;;;;;;;2.20;1.42;;;12.30;99.90;;;;;;5073564;27;1140922;-56
2023/08/09 05:40:10;;;;;;;1.70;0.90;;;12.50;99.90;;;;;;5097401;28;20104;-55
2023/08/09 05:42:36;;;;;;;3.00;1.42;;;12.60;99.90;;;;;;5111677;27;20059;-55
2023/08/09 05:45:03;;;;;;;2.35;1.27;;;12.80;99.90;;;;;;5117356;27;20054;-56
2023/08/09 05:47:29;;;;;;;3.03;1.20;;;12.90;99.90;;;;;;5120141;27;20097;-55
2023/08/09 05:49:55;;;;;;;3.72;1.10;;;13.10;99.90;;;;;;5119125;27;20583;-56
2023/08/09 05:52:24;;;;;;;2.67;0.95;;;13.20;99.90;;;;;;5122488;27;20079;-58
2023/08/09 05:54:50;;;;;;;4.15;1.30;;;13.40;99.90;;;;;;5119650;27;20043;-56
2023/08/09 05:57:16;;;;;;;3.85;2.15;;;13.60;99.90;;;;;;5121235;27;20059;-60
2023/08/09 05:59:41;;;;;;;2.42;1.05;;;13.80;99.90;;;;;;5096193;27;20071;-56
2023/08/09 06:02:07;;;;;;;2.10;0.90;;;14.00;99.90;;;;;;5121433;27;20061;-58
2023/08/09 06:04:33;;;;;;;6.72;1.13;;;14.20;99.90;;;;;;5118308;27;20059;-57
2023/08/09 06:06:59;;;;;;;4.68;1.98;;;14.40;99.90;;;;;;5115403;27;20068;-57
2023/08/09 06:09:28;;;;;;;6.45;1.27;;;14.50;99.90;;;;;;5113705;27;20062;-59
2023/08/09 06:11:54;;;;;;;2.67;1.40;;;14.70;99.90;;;;;;5118854;27;20092;-57
2023/08/09 06:14:20;;;;;;;1.88;0.80;;;14.80;99.90;;;;;;5115187;27;20078;-56
2023/08/09 06:16:47;;;;;;;2.03;0.85;;;14.90;99.90;;;;;;5096333;27;20074;-56
2023/08/09 06:19:13;;;;;;;1.48;1.02;;;15.20;99.90;;;;;;5120654;27;20051;-57
2023/08/09 06:21:40;;;;;;;3.95;1.10;;;15.30;99.90;;;;;;5110089;27;20060;-57
2023/08/09 06:24:06;;;;;;;2.75;0.85;;;15.80;99.90;;;;;;5091659;28;20066;-57
2023/08/09 06:26:33;;;;;;;2.63;0.85;;;15.50;99.90;;;;;;5111954;27;20055;-56
2023/08/09 06:28:59;;;;;;;1.95;0.88;;;15.70;99.90;;;;;;5119824;27;20104;-56
2023/08/09 06:31:25;;;;;;;3.10;0.98;;;15.80;99.90;;;;;;5117792;28;20059;-56
2023/08/09 06:33:50;;;;;;;4.50;1.60;;;15.90;99.90;;;;;;5099138;28;20058;-56
2023/08/09 06:36:16;;;;;;;1.88;0.80;;;16.10;99.90;;;;;;5095290;28;20101;-56
2023/08/09 06:38:42;;;;;;;4.55;1.48;;;16.30;99.90;;;;;;5115031;27;20553;-56
2023/08/09 06:41:07;;;;;;;1.83;0.90;;;16.40;99.90;;;;;;5119656;27;20059;-56
2023/08/09 06:43:33;;;;;;;2.40;0.90;;;16.50;99.90;;;;;;5117728;27;20059;-56
2023/08/09 06:46:02;;;;;;;5.07;0.75;;;16.70;99.90;;;;;;5123085;27;20067;-56
2023/08/09 06:48:29;;;;;;;0.90;0.70;;;16.80;99.90;;;;;;5124458;27;20063;-56
2023/08/09 06:50:59;;;;;;;2.45;0.88;;;16.90;99.90;;;;;;5120259;27;20066;-56
2023/08/09 06:53:26;;;;;;;5.18;0.50;;;16.90;99.90;;;;;;5115427;27;20132;-57
2023/08/09 06:55:59;;;;;;;1.88;0.70;;;17.10;99.90;;;;;;5079472;28;20162;-57
2023/08/09 06:58:25;;;;;;;1.00;0.90;;;17.20;99.90;;;;;;5094819;28;20052;-55
2023/08/09 07:00:51;;;;;;;1.75;0.63;;;17.50;99.90;;;;;;5118808;27;20826;-57
2023/08/09 07:03:17;;;;;;;1.85;1.15;;;17.40;99.90;;;;;;5114529;27;20055;-56
2023/08/09 07:05:43;;;;;;;1.45;0.65;;;17.60;99.90;;;;;;5119509;27;20577;-58
2023/08/09 07:08:09;;;;;;;4.82;1.27;;;17.70;99.90;;;;;;5119771;27;20583;-57
2023/08/09 07:10:35;;;;;;;3.35;0.90;;;17.80;99.90;;;;;;5119654;27;20047;-57
2023/08/09 07:13:01;;;;;;;2.00;0.90;;;17.90;99.90;;;;;;5118811;27;20829;-57
2023/08/09 07:15:27;;;;;;;2.83;0.85;;;18.00;99.90;;;;;;5110906;27;20055;-56
2023/08/09 07:17:52;;;;;;;3.72;0.88;;;18.00;99.90;;;;;;5117116;27;20059;-58
2023/08/09 07:20:18;;;;;;;2.42;0.80;;;18.10;99.90;;;;;;5120805;27;20059;-57
2023/08/09 07:22:45;;;;;;;1.17;0.80;;;18.40;99.90;;;;;;5119065;27;20047;-63
2023/08/09 07:25:13;;;;;;;1.38;0.90;;;18.30;99.90;;;;;;5114421;27;20527;-57
2023/08/09 07:27:47;;;;;;;2.25;0.80;;;18.50;99.90;;;;;;5118590;27;20146;-57
2023/08/09 07:30:16;;;;;;;4.68;1.23;;;18.30;99.90;;;;;;5115124;27;20059;-57
2023/08/09 07:32:42;;;;;;;2.10;0.90;;;18.80;99.90;;;;;;5118391;27;20145;-59
2023/08/09 07:35:09;;;;;;;3.53;0.80;;;18.70;99.90;;;;;;5114181;27;20070;-63
2023/08/09 07:37:36;;;;;;;4.18;0.77;;;18.70;99.90;;;;;;5116279;27;20043;-56
2023/08/09 07:40:04;;;;;;;1.95;0.85;;;19.00;99.90;;;;;;5121445;27;20108;-56
2023/08/09 07:42:30;;;;;;;0.85;0.60;;;19.20;99.90;;;;;;5117059;27;20074;-55
2023/08/09 07:44:56;;;;;;;2.70;0.82;;;19.20;99.90;;;;;;5118696;27;20119;-56
2023/08/09 07:47:25;;;;;;;2.10;0.98;;;19.80;99.90;;;;;;5096688;28;20055;-55
2023/08/09 07:49:51;;;;;;;2.90;1.02;;;20.00;99.90;;;;;;5116478;27;20155;-57
2023/08/09 07:52:17;;;;;;;2.95;1.23;;;19.80;99.90;;;;;;5116890;27;20166;-56
2023/08/09 07:54:43;;;;;;;3.70;1.10;;;20.10;99.90;;;;;;5089075;27;20216;-57
2023/08/09 07:57:09;;;;;;;1.88;1.02;;;20.30;99.90;;;;;;5118098;27;20051;-56
2023/08/09 07:59:35;;;;;;;0.85;0.50;;;20.70;99.90;;;;;;5111968;27;20060;-55
2023/08/09 08:02:01;;;;;;;1.13;0.60;;;20.80;99.90;;;;;;5119060;27;20047;-56
2023/08/09 08:04:26;;;;;;;2.42;0.80;;;21.10;99.90;;;;;;5113036;27;20067;-55
2023/08/09 08:06:52;;;;;;;2.65;0.60;;;21.20;99.90;;;;;;5117838;27;20059;-56
2023/08/09 08:09:18;;;;;;;5.15;1.17;;;20.80;99.90;;;;;;5118357;27;20647;-56
2023/08/09 08:11:44;;;;;;;1.20;0.70;;;21.00;99.90;;;;;;5117926;27;20059;-56
2023/08/09 08:14:10;;;;;;;0.75;0.50;;;20.90;99.90;;;;;;5119030;27;20393;-56
2023/08/09 08:16:37;;;;;;;1.25;0.70;;;21.20;99.90;;;;;;5109109;27;20687;-56
2023/08/09 08:19:03;;;;;;;2.88;0.57;;;20.70;99.90;;;;;;5122690;27;20512;-56
2023/08/09 08:21:29;;;;;;;2.55;0.50;;;21.00;99.90;;;;;;5119088;27;20138;-55
2023/08/09 08:23:56;;;;;;;5.57;1.00;;;21.30;99.90;;;;;;5121770;27;20104;-57
2023/08/09 08:26:25;;;;;;;0.68;0.40;;;21.40;99.90;;;;;;5125110;27;20112;-56
2023/08/09 08:28:50;;;;;;;0.77;0.45;;;21.30;99.90;;;;;;5118375;27;21078;-56
2023/08/09 08:31:19;;;;;;;1.23;0.50;;;21.20;99.90;;;;;;5127641;27;20051;-56
2023/08/09 08:33:48;;;;;;;3.58;0.88;;;21.40;99.90;;;;;;5115922;27;21857;-57
2023/08/09 08:36:15;;;;;;;2.10;0.57;;;21.70;99.90;;;;;;5120474;27;20107;-56
2023/08/09 08:38:42;;;;;;;2.78;0.77;;;21.70;99.90;;;;;;5116975;27;20528;-55
2023/08/09 08:41:08;;;;;;;2.70;0.70;;;21.60;99.90;;;;;;5118291;27;20047;-56
2023/08/09 08:43:34;;;;;;;1.02;0.40;;;21.80;99.90;;;;;;5084362;27;20056;-57
2023/08/09 08:46:02;;;;;;;2.00;0.88;;;21.60;99.90;;;;;;5120189;27;20134;-56
2023/08/09 08:48:28;;;;;;;1.25;0.50;;;22.00;99.90;;;;;;5121624;27;20059;-56
2023/08/09 08:50:57;;;;;;;1.58;0.68;;;22.20;99.90;;;;;;5122351;27;20047;-57
2023/08/09 08:53:28;;;;;;;2.45;0.50;;;22.30;99.90;;;;;;5123452;27;20059;-56
2023/08/09 08:55:54;;;;;;;3.38;1.05;;;23.20;99.90;;;;;;5111456;27;20058;-66
2023/08/09 08:58:20;;;;;;;2.33;0.63;;;22.70;99.90;;;;;;5083107;28;20558;-66
2023/08/09 09:01:11;;;;;;;2.25;0.50;;;22.00;99.90;;;;;;5119345;27;20067;-63
2023/08/09 09:03:37;;;;;;;1.25;0.50;;;22.10;99.90;;;;;;5118755;27;20059;-58
2023/08/09 09:06:03;;;;;;;2.97;0.70;;;22.20;99.90;;;;;;5119482;27;20108;-58
2023/08/09 09:08:29;;;;;;;3.28;0.60;;;21.40;99.90;;;;;;5119536;27;20831;-59
2023/08/09 09:10:54;;;;;;;2.95;0.93;;;22.10;99.90;;;;;;5102368;27;20048;-57
2023/08/09 09:13:25;;;;;;;1.50;0.60;;;21.60;99.90;;;;;;5119026;27;20086;-58
2023/08/09 09:15:52;;;;;;;1.80;0.40;;;21.40;99.90;;;;;;5113022;27;20512;-56
2023/08/09 09:18:19;;;;;;;1.48;0.45;;;21.40;99.90;;;;;;5123073;27;20063;-59
2023/08/09 09:20:46;;;;;;;2.25;0.70;;;21.40;99.90;;;;;;5098958;27;20047;-57
2023/08/09 09:26:01;;;;;;;1.05;0.80;;;20.90;99.90;;;;;;5120981;27;20065;-57
2023/08/09 09:28:27;;;;;;;2.45;0.57;;;21.30;99.90;;;;;;5105944;27;20147;-56
2023/08/09 09:30:57;;;;;;;2.65;0.52;;;22.10;99.90;;;;;;5097085;28;20168;-58
2023/08/09 09:33:36;;;;;;;1.20;0.47;;;21.30;99.90;;;;;;5115145;27;20044;-58
2023/08/09 09:36:03;;;;;;;0.47;0.47;;;21.00;99.90;;;;;;5116928;27;20504;-59
2023/08/09 09:38:29;;;;;;;1.02;0.60;;;21.50;99.90;;;;;;5114609;27;20051;-58
2023/08/09 09:40:57;;;;;;;0.80;0.60;;;21.70;99.90;;;;;;5115230;27;20051;-57
2023/08/09 09:43:32;;;;;;;0.80;0.50;;;22.30;99.90;;;;;;5109525;27;20084;-57
2023/08/09 09:45:57;;;;;;;1.13;0.47;;;22.20;99.90;;;;;;5085293;28;20043;-58
2023/08/09 09:48:28;;;;;;;3.95;0.70;;;21.80;99.90;;;;;;5110466;27;20064;-57
2023/08/09 09:50:56;;;;;;;1.02;0.50;;;21.50;99.90;;;;;;5112983;27;20065;-57
2023/08/09 09:56:06;;;;;;;2.28;0.40;;;21.00;99.90;;;;;;5098921;27;20604;-58
2023/08/09 09:58:32;;;;;;;2.88;1.02;;;20.80;99.90;;;;;;5087258;28;20155;-61
2023/08/09 10:00:59;;;;;;;1.73;0.60;;;21.40;99.90;;;;;;5083868;28;20060;-59
2023/08/09 10:03:28;;;;;;;2.03;0.90;;;20.90;99.90;;;;;;5086480;28;20064;-62
2023/08/09 10:05:56;;;;;;;0.50;0.50;;;21.60;99.90;;;;;;5093046;28;20145;-57
2023/08/09 10:08:27;;;;;;;2.70;0.88;;;22.40;99.90;;;;;;5085387;28;20060;-62
2023/08/09 10:10:54;;;;;;;1.55;0.70;;;22.30;99.90;;;;;;5085253;28;20067;-59
2023/08/09 10:13:25;;;;;;;0.60;0.50;;;22.00;99.90;;;;;;5098276;28;20048;-62
2023/08/09 10:15:58;;;;;;;3.20;0.60;;;21.80;99.90;;;;;;5087454;28;20071;-57
2023/08/09 10:18:31;;;;;;;4.43;0.95;;;21.70;99.90;;;;;;5089269;28;20044;-58
2023/08/09 10:20:59;;;;;;;1.67;0.80;;;22.20;99.90;;;;;;5084958;28;20071;-57
2023/08/09 10:23:28;;;;;;;1.08;0.60;;;21.60;99.90;;;;;;5090996;28;20101;-57
2023/08/09 10:25:56;;;;;;;0.90;0.50;;;22.20;99.90;;;;;;5084343;28;20064;-56
2023/08/09 10:31:03;;;;;;;1.90;0.52;;;21.70;99.90;;;;;;5074763;28;21322;-57
2023/08/09 10:33:31;;;;;;;2.85;0.88;;;21.50;99.90;;;;;;5098567;28;20055;-60
2023/08/09 10:35:57;;;;;;;1.70;0.68;;;21.20;99.90;;;;;;5108826;28;20061;-57
2023/08/09 10:38:32;;;;;;;2.53;0.80;;;21.50;99.90;;;;;;5111759;27;20424;-57
2023/08/09 10:41:06;;;;;;;1.13;0.68;;;21.60;99.90;;;;;;5103439;28;20571;-56
2023/08/09 10:43:37;;;;;;;2.08;1.38;;;21.20;99.90;;;;;;5126084;27;20062;-57
2023/08/09 10:46:23;;;;;;;0.88;0.45;;;21.20;99.90;;;;;;5122238;27;21167;-58
2023/08/09 10:48:50;;;;;;;2.17;0.85;;;22.30;99.90;;;;;;5120675;27;20454;-57
2023/08/09 10:51:21;;;;;;;1.73;0.63;;;22.70;99.90;;;;;;5111678;27;20051;-57
2023/08/09 10:54:05;;;;;;;2.30;0.90;;;22.90;99.90;;;;;;5089033;28;20055;-56
2023/08/09 10:56:38;;;;;;;0.82;0.60;;;21.90;99.90;;;;;;5106232;28;20067;-57
2023/08/09 10:59:09;;;;;;;1.33;0.77;;;21.90;99.90;;;;;;5096830;28;20561;-57
2023/08/09 11:01:42;;;;;;;1.38;0.70;;;21.70;99.90;;;;;;5101915;28;20142;-57
2023/08/09 11:04:10;;;;;;;0.87;0.73;;;22.20;99.90;;;;;;5108557;27;20232;-57
2023/08/09 11:06:41;;;;;;;1.05;0.70;;;22.30;99.90;;;;;;5125491;27;20786;-59
2023/08/09 11:09:21;;;;;;;1.35;0.80;;;22.30;99.90;;;;;;5110729;27;20048;-57
2023/08/09 11:11:48;;;;;;;0.85;0.52;;;23.10;99.90;;;;;;5096668;27;20154;-58
2023/08/09 11:14:18;;;;;;;1.58;0.80;;;23.00;99.90;;;;;;5118555;27;20146;-57
2023/08/09 11:16:45;;;;;;;4.82;1.17;;;22.00;99.90;;;;;;5116917;27;20197;-55
2023/08/09 11:19:21;;;;;;;4.40;0.80;;;21.50;99.90;;;;;;5119433;27;20055;-56
2023/08/09 11:21:54;;;;;;;3.95;0.65;;;21.60;99.90;;;;;;5091621;27;20098;-56
2023/08/09 11:24:22;;;;;;;2.92;0.88;;;22.40;99.90;;;;;;5115505;27;20079;-56
2023/08/09 11:26:57;;;;;;;0.68;0.45;;;23.00;99.90;;;;;;5112959;27;20055;-57
2023/08/09 11:29:28;;;;;;;0.55;0.55;;;23.30;99.90;;;;;;5113018;27;20059;-56
2023/08/09 11:31:56;;;;;;;1.75;1.35;;;24.80;99.90;;;;;;5096871;27;20153;-61
2023/08/09 11:34:24;;;;;;;1.38;0.98;;;23.70;99.90;;;;;;5113069;27;20059;-57
2023/08/09 11:36:52;;;;;;;2.58;0.75;;;24.80;99.90;;;;;;5105826;27;20055;-57
2023/08/09 11:39:21;;;;;;;1.55;0.90;;;27.60;99.90;;;;;;5089794;27;20070;-57
2023/08/09 11:41:50;;;;;;;3.22;1.10;;;29.60;99.90;;;;;;5099445;27;20109;-57
2023/08/09 11:44:20;;;;;;;3.53;0.50;;;30.90;97.90;;;;;;5116256;27;20070;-59
2023/08/09 11:46:46;;;;;;;3.55;0.70;;;28.10;97.00;;;;;;5118258;27;20055;-62
2023/08/09 11:49:12;;;;;;;1.30;0.80;;;26.20;98.40;;;;;;5110002;27;20155;-58
2023/08/09 11:51:38;;;;;;;2.55;0.88;;;26.10;99.90;;;;;;5101696;27;20083;-57
2023/08/09 11:54:08;;;;;;;2.30;0.75;;;25.90;99.90;;;;;;5085524;27;20184;-57
2023/08/09 11:56:38;;;;;;;1.50;0.73;;;26.20;98.20;;;;;;5087603;27;20413;-57
2023/08/09 11:59:04;;;;;;;2.58;1.00;;;28.10;96.80;;;;;;5079315;28;21391;-57
2023/08/09 12:01:37;;;;;;;2.25;0.65;;;31.70;97.20;;;;;;5096818;27;20125;-56
2023/08/09 12:04:11;;;;;;;1.85;0.80;;;28.70;96.40;;;;;;5081306;27;20055;-57
2023/08/09 12:06:38;;;;;;;;;;;26.30;95.90;;;;;;5110131;27;20363;-56
2023/08/09 12:09:30;;;;;;;1.25;0.70;;;24.10;99.00;;;;;;5081603;27;19923;-56
2023/08/09 12:12:11;;;;;;;2.35;1.10;;;23.30;99.90;;;;;;5110659;27;20514;-56
2023/08/09 12:14:39;;;;;;;2.88;0.93;;;24.30;99.90;;;;;;5106765;27;20191;-56
2023/08/09 12:17:05;;;;;;;3.60;0.60;;;26.10;99.90;;;;;;5091354;28;20640;-57
2023/08/09 12:19:31;;;;;;;2.10;1.00;;;26.00;97.90;;;;;;5113577;27;20055;-57
2023/08/09 12:21:59;;;;;;;1.08;0.70;;;24.90;99.60;;;;;;5110351;27;20118;-57
2023/08/09 12:24:26;;;;;;;1.65;0.82;;;23.70;99.90;;;;;;5092319;27;20059;-57
2023/08/09 12:26:52;;;;;;;1.77;1.05;;;23.60;99.90;;;;;;5109016;27;20059;-55
2023/08/09 12:29:18;;;;;;;3.00;0.90;;;22.70;99.90;;;;;;5102570;27;20138;-57
2023/08/09 12:31:44;;;;;;;0.98;0.45;;;22.50;99.90;;;;;;5111987;27;20076;-57
2023/08/09 12:34:11;;;;;;;1.55;0.80;;;21.90;99.90;;;;;;5112611;27;20063;-57
2023/08/09 12:36:37;;;;;;;2.50;0.90;;;21.70;99.90;;;;;;5096114;27;20437;-57
2023/08/09 12:39:03;;;;;;;2.75;0.80;;;21.40;99.90;;;;;;5096005;27;20141;-58
2023/08/09 12:41:30;;;;;;;4.05;1.35;;;22.70;99.90;;;;;;5108485;27;20070;-59
2023/08/09 12:43:55;;;;;;;1.05;0.95;;;26.30;99.90;;;;;;5107682;27;20078;-56
2023/08/09 12:46:21;;;;;;;5.30;0.90;;;28.60;99.70;;;;;;5060459;27;20048;-57
2023/08/09 12:48:47;;;;;;;1.08;0.60;;;25.40;99.90;;;;;;5070179;27;20500;-57
2023/08/09 12:51:13;;;;;;;1.88;1.40;;;23.40;99.90;;;;;;5109512;27;20485;-57
2023/08/09 12:53:40;;;;;;;2.30;0.73;;;22.40;99.90;;;;;;5088921;27;20057;-56
2023/08/09 12:56:06;;;;;;;1.10;0.50;;;22.20;99.90;;;;;;5106575;27;20142;-57
2023/08/09 12:58:31;;;;;;;3.33;0.90;;;21.50;99.90;;;;;;5113402;27;20186;-57
2023/08/09 13:00:57;;;;;;;5.18;0.90;;;21.50;99.90;;;;;;5094266;27;20071;-56